Data for 11/03/2018

Time Sea-Level Adjusted Pressure Absolute Pressure Temperature Relative Humidity Dew Point   
(mb) (inHg) (mb) (inHg) (C) (F) (%) (C) (F)
00:05 1018 30.06 847 25.01 5.5 41.8 59 -1.9 28.5
00:10 1018 30.06 847 25.01 5.4 41.7 60 -1.7 28.9
00:15 1018 30.06 847 25.01 5.2 41.4 61 -1.6 29.1
00:20 1018 30.06 847 25.01 4.9 40.9 65 -1 30.2
00:25 1018 30.06 847 25.01 4.6 40.3 68 -0.8 30.6
00:30 1018 30.06 848 25.04 4.4 39.9 70 -0.7 30.8
00:35 1018 30.06 848 25.04 4.2 39.6 70 -0.7 30.7
00:40 1019 30.09 848 25.04 4.2 39.6 70 -0.7 30.8
00:45 1019 30.09 848 25.04 4.2 39.5 71 -0.6 30.9
00:50 1019 30.09 848 25.04 4.1 39.4 71 -0.7 30.7
00:55 1019 30.09 848 25.04 4.1 39.5 70 -0.9 30.5
01:00 1019 30.09 848 25.04 4.2 39.6 70 -0.7 30.7
01:05 1019 30.09 848 25.04 4.2 39.5 70 -0.7 30.7
01:10 1019 30.09 848 25.04 4.2 39.5 71 -0.6 30.8
01:15 1019 30.09 848 25.04 4.1 39.4 71 -0.6 30.8
01:20 1019 30.09 848 25.04 4.1 39.4 71 -0.7 30.8
01:25 1019 30.09 848 25.04 4.1 39.3 71 -0.6 30.9
01:30 1019 30.09 848 25.04 4 39.2 72 -0.6 30.9
01:35 1019 30.09 849 25.07 3.9 39.1 73 -0.6 31
01:40 1019 30.09 849 25.07 3.9 39 73 -0.5 31.1
01:45 1019 30.09 849 25.07 3.8 38.9 74 -0.5 31.2
01:50 1019 30.09 849 25.07 3.8 38.8 74 -0.4 31.3
01:55 1019 30.09 849 25.07 3.7 38.7 75 -0.4 31.3
02:00 1019 30.09 849 25.07 3.7 38.6 75 -0.3 31.4
02:05 1020 30.12 849 25.07 3.7 38.7 75 -0.3 31.5
02:10 1020 30.12 849 25.07 3.7 38.7 76 -0.2 31.7
02:15 1020 30.12 849 25.07 3.7 38.7 76 -0.2 31.7
02:20 1020 30.12 849 25.07 3.7 38.7 76 -0.2 31.7
02:25 1020 30.12 849 25.07 3.7 38.6 76 -0.1 31.9
02:30 1020 30.12 849 25.07 3.6 38.5 77 0 32.1
02:35 1020 30.12 849 25.07 3.5 38.3 78 0 32
02:40 1020 30.12 849 25.07 3.5 38.3 78 -0 31.9
02:45 1020 30.12 849 25.07 3.5 38.3 78 -0.1 31.9
02:50 1020 30.12 849 25.07 3.5 38.3 78 -0.1 31.9
02:55 1020 30.12 849 25.07 3.5 38.2 78 -0 31.9
03:00 1020 30.12 849 25.07 3.4 38.2 78 -0 31.9
03:05 1020 30.12 849 25.07 3.4 38.1 78 -0.1 31.8
03:10 1020 30.12 849 25.07 3.3 37.9 79 -0.1 31.9
03:15 1020 30.12 849 25.07 3.2 37.8 79 -0.1 31.9
03:20 1020 30.12 849 25.07 3.2 37.7 79 -0.1 31.9
03:25 1020 30.12 849 25.07 3.1 37.5 80 -0.1 31.8
03:30 1020 30.12 849 25.07 3 37.4 80 -0.2 31.6
03:35 1020 30.12 849 25.07 3 37.4 80 -0.2 31.7
03:40 1020 30.12 849 25.07 2.9 37.2 80 -0.2 31.6
03:45 1020 30.12 849 25.07 2.8 37.1 80 -0.2 31.6
03:50 1020 30.12 849 25.07 2.7 36.9 81 -0.2 31.6
03:55 1020 30.12 849 25.07 2.8 37.1 80 -0.2 31.6
04:00 1020 30.12 849 25.07 2.9 37.3 80 -0.2 31.7
04:05 1020 30.12 849 25.07 2.8 37.1 81 -0.2 31.7
04:10 1020 30.12 849 25.07 2.9 37.1 80 -0.3 31.4
04:15 1020 30.12 849 25.07 3 37.4 79 -0.2 31.6
04:20 1020 30.12 849 25.07 3.1 37.6 79 -0.3 31.5
04:25 1020 30.12 849 25.07 3.2 37.7 79 -0.2 31.7
04:30 1020 30.12 849 25.07 3.2 37.8 79 -0.1 31.8
04:35 1020 30.12 849 25.07 3.2 37.8 79 -0.1 31.8
04:40 1020 30.12 849 25.07 3.2 37.8 79 -0.1 31.9
04:45 1020 30.12 849 25.07 3.2 37.8 79 -0.1 31.9
04:50 1020 30.12 849 25.07 3.2 37.8 78 -0.2 31.6
04:55 1020 30.12 849 25.07 3.1 37.7 79 -0.1 31.8
05:00 1020 30.12 849 25.07 3.1 37.5 79 -0.2 31.6
05:05 1020 30.12 850 25.1 3.1 37.5 79 -0.2 31.6
05:10 1020 30.12 850 25.1 3 37.5 79 -0.3 31.5
05:15 1020 30.12 850 25.1 3 37.3 79 -0.2 31.6
05:20 1021 30.15 850 25.1 3 37.4 79 -0.3 31.4
05:25 1021 30.15 850 25.1 3.1 37.6 78 -0.3 31.4
05:30 1021 30.15 850 25.1 3.2 37.8 78 -0.3 31.5
05:35 1021 30.15 850 25.1 3.2 37.8 78 -0.3 31.5
05:40 1021 30.15 850 25.1 3.2 37.7 78 -0.3 31.5
05:45 1021 30.15 850 25.1 3.1 37.5 78 -0.3 31.4
05:50 1021 30.15 850 25.1 3.1 37.5 79 -0.2 31.6
05:55 1021 30.15 850 25.1 2.9 37.3 80 -0.2 31.7
06:00 1021 30.15 850 25.1 2.8 37 80 -0.3 31.4
06:05 1020 30.12 850 25.1 2.8 37.1 80 -0.4 31.4
06:10 1020 30.12 849 25.07 2.8 37.1 79 -0.5 31.1
06:15 1020 30.12 849 25.07 2.9 37.2 78 -0.5 31
06:20 1020 30.12 849 25.07 3 37.3 78 -0.5 31.1
06:25 1020 30.12 849 25.07 3 37.5 77 -0.6 31
06:30 1020 30.12 850 25.1 3.1 37.6 78 -0.4 31.3
06:35 1021 30.15 850 25.1 3 37.5 78 -0.3 31.4
06:40 1021 30.15 850 25.1 2.9 37.3 79 -0.4 31.3
06:45 1021 30.15 850 25.1 2.8 37.1 80 -0.3 31.4
06:50 1021 30.15 850 25.1 2.8 37.1 80 -0.3 31.4
06:55 1021 30.15 850 25.1 2.7 36.9 81 -0.3 31.5
07:00 1021 30.15 850 25.1 2.7 36.9 77 -1 30.3
07:05 1021 30.15 850 25.1 3 37.4 74 -1.1 30
07:10 1021 30.15 850 25.1 3.3 37.9 73 -1.2 29.9
07:15 1021 30.15 850 25.1 3.4 38.1 73 -1.1 30.1
07:20 1021 30.15 850 25.1 3.4 38.2 73 -0.9 30.3
07:25 1021 30.15 850 25.1 3.4 38.1 74 -0.8 30.5
07:30 1021 30.15 850 25.1 3.4 38.1 74 -0.8 30.5
07:35 1021 30.15 850 25.1 3.4 38.2 74 -0.9 30.5
07:40 1021 30.15 850 25.1 3.5 38.4 73 -0.8 30.6
07:45 1021 30.15 850 25.1 3.6 38.4 74 -0.7 30.8
07:50 1021 30.15 850 25.1 3.6 38.5 73 -0.7 30.7
07:55 1021 30.15 850 25.1 3.7 38.7 73 -0.7 30.7
08:00 1021 30.15 851 25.13 3.8 38.9 73 -0.5 31
08:05 1021 30.15 850 25.1 3.8 38.9 73 -0.5 31.1
08:10 1021 30.15 850 25.1 3.8 38.8 73 -0.7 30.8
08:15 1021 30.15 850 25.1 3.7 38.7 76 -0.2 31.6
08:20 1021 30.15 850 25.1 3.3 38 78 -0.2 31.6
08:25 1021 30.15 851 25.13 3.1 37.6 79 -0.2 31.6
08:30 1021 30.15 850 25.1 3.1 37.5 78 -0.4 31.3
08:35 1021 30.15 851 25.13 3.2 37.7 78 -0.3 31.4
08:40 1021 30.15 851 25.13 3.2 37.8 76 -0.6 30.9
08:45 1021 30.15 851 25.13 3.3 38 76 -0.6 31
08:50 1021 30.15 851 25.13 3.4 38.1 76 -0.5 31.1
08:55 1021 30.15 851 25.13 3.4 38.2 75 -0.6 30.9
09:00 1022 30.18 851 25.13 3.5 38.3 74 -0.7 30.7
09:05 1022 30.18 851 25.13 3.5 38.3 73 -0.8 30.6
09:10 1022 30.18 851 25.13 3.6 38.5 73 -0.8 30.6
09:15 1022 30.18 851 25.13 3.7 38.6 74 -0.6 30.9
09:20 1022 30.18 851 25.13 3.8 38.8 74 -0.5 31.1
09:25 1022 30.18 851 25.13 3.9 39.1 74 -0.3 31.5
09:30 1022 30.18 851 25.13 4.1 39.3 73 -0.3 31.5
09:35 1022 30.18 851 25.13 4.1 39.4 71 -0.6 30.8
09:40 1022 30.18 851 25.13 4.2 39.6 72 -0.4 31.2
09:45 1021 30.15 851 25.13 4.3 39.7 71 -0.5 31.1
09:50 1021 30.15 851 25.13 4.3 39.8 71 -0.6 31
09:55 1022 30.18 851 25.13 4.4 39.8 70 -0.5 31
10:00 1022 30.18 851 25.13 4.4 40 70 -0.6 30.8
10:05 1021 30.15 851 25.13 4.5 40 70 -0.6 30.9
10:10 1022 30.18 851 25.13 4.6 40.2 69 -0.7 30.8
10:15 1022 30.18 851 25.13 4.7 40.4 69 -0.6 31
10:20 1022 30.18 851 25.13 4.7 40.5 68 -0.6 30.9
10:25 1021 30.15 851 25.13 4.7 40.5 68 -0.7 30.7
10:30 1021 30.15 851 25.13 4.8 40.6 67 -0.7 30.7
10:35 1021 30.15 851 25.13 4.6 40.3 69 -0.7 30.8
10:40 1021 30.15 851 25.13 4.6 40.3 69 -0.7 30.8
10:45 1021 30.15 851 25.13 4.8 40.6 68 -0.6 30.9
10:50 1021 30.15 851 25.13 4.8 40.7 68 -0.5 31
10:55 1021 30.15 851 25.13 4.8 40.7 69 -0.4 31.4
11:00 1021 30.15 851 25.13 4.8 40.6 70 -0.2 31.7
11:05 1021 30.15 851 25.13 4.7 40.4 70 -0.3 31.5
11:10 1021 30.15 851 25.13 4.6 40.4 69 -0.5 31.2
11:15 1022 30.18 851 25.13 4.7 40.5 70 -0.3 31.4
11:20 1022 30.18 851 25.13 4.7 40.5 70 -0.4 31.3
11:25 1022 30.18 851 25.13 4.9 40.8 69 -0.3 31.5
11:30 1022 30.18 851 25.13 5 41 70 0 32.1
11:35 1021 30.15 851 25.13 4.9 40.8 69 -0.2 31.6
11:40 1021 30.15 851 25.13 4.9 40.9 68 -0.4 31.3
11:45 1021 30.15 851 25.13 5.1 41.1 68 -0.3 31.5
11:50 1021 30.15 850 25.1 5.3 41.6 62 -1.3 29.7
11:55 1021 30.15 850 25.1 5.7 42.2 61 -1.3 29.7
12:00 1021 30.15 850 25.1 6.1 42.9 59 -1.3 29.7
12:05 1021 30.15 851 25.13 6.2 43.2 58 -1.4 29.5
12:10 1021 30.15 851 25.13 6.3 43.4 57 -1.5 29.4
12:15 1021 30.15 851 25.13 6.3 43.4 56 -1.7 29
12:20 1021 30.15 851 25.13 6.1 43 59 -1.3 29.7
12:25 1021 30.15 851 25.13 5.6 42.1 61 -1.2 29.8
12:30 1021 30.15 850 25.1 5.6 42 61 -1.3 29.6
12:35 1021 30.15 850 25.1 5.6 42.1 60 -1.5 29.4
12:40 1021 30.15 850 25.1 5.9 42.5 58 -1.7 28.9
12:45 1021 30.15 850 25.1 6.1 43 56 -2 28.4
12:50 1021 30.15 850 25.1 6.1 42.9 57 -1.8 28.7
12:55 1021 30.15 850 25.1 6.2 43.1 56 -2 28.3
13:00 1021 30.15 850 25.1 6.4 43.5 54 -2.3 27.9
13:05 1021 30.15 850 25.1 6.5 43.7 51 -2.8 26.9
13:10 1021 30.15 850 25.1 6.5 43.7 51 -3 26.6
13:15 1021 30.15 850 25.1 6.6 44 51 -2.9 26.8
13:20 1020 30.12 850 25.1 6.9 44.3 50 -2.7 27.1
13:25 1020 30.12 850 25.1 6.9 44.5 49 -3 26.6
13:30 1020 30.12 850 25.1 6.8 44.3 50 -2.8 26.9
13:35 1020 30.12 849 25.07 6.9 44.4 48 -3.3 26.1
13:40 1020 30.12 849 25.07 6.8 44.3 50 -3 26.6
13:45 1020 30.12 850 25.1 6.8 44.3 50 -3 26.6
13:50 1020 30.12 850 25.1 6.8 44.2 49 -3.2 26.2
13:55 1020 30.12 850 25.1 6.8 44.2 49 -3.2 26.2
14:00 1020 30.12 849 25.07 6.8 44.2 48 -3.4 25.8
14:05 1020 30.12 849 25.07 6.7 44.1 49 -3.2 26.2
14:10 1020 30.12 849 25.07 6.7 44.1 48 -3.4 25.8
14:15 1020 30.12 849 25.07 6.7 44.1 50 -3 26.6
14:20 1020 30.12 849 25.07 6.5 43.8 50 -3 26.6
14:25 1020 30.12 849 25.07 6.5 43.7 49 -3.3 26.1
14:30 1020 30.12 849 25.07 6.6 43.8 50 -3.1 26.4
14:35 1020 30.12 849 25.07 6.7 44 49 -3.4 26
14:40 1020 30.12 849 25.07 6.7 44 49 -3.2 26.2
14:45 1020 30.12 849 25.07 6.7 44.1 50 -3.1 26.5
14:50 1020 30.12 849 25.07 6.8 44.2 50 -2.8 26.9
14:55 1021 30.15 850 25.1 6.9 44.5 50 -2.7 27.1
15:00 1021 30.15 850 25.1 7 44.6 51 -2.5 27.5
15:05 1021 30.15 850 25.1 7 44.6 49 -2.9 26.8
15:10 1021 30.15 850 25.1 7 44.6 51 -2.5 27.4
15:15 1021 30.15 850 25.1 7 44.6 51 -2.4 27.7
15:20 1020 30.12 850 25.1 6.9 44.4 51 -2.4 27.6
15:25 1020 30.12 849 25.07 6.8 44.3 51 -2.5 27.5
15:30 1020 30.12 849 25.07 6.8 44.3 51 -2.6 27.3
15:35 1020 30.12 849 25.07 6.8 44.3 52 -2.4 27.7
15:40 1020 30.12 849 25.07 6.8 44.3 51 -2.6 27.4
15:45 1020 30.12 849 25.07 6.8 44.3 50 -3 26.6
15:50 1020 30.12 849 25.07 6.8 44.3 49 -3 26.6
15:55 1020 30.12 849 25.07 6.8 44.2 49 -3 26.5
16:00 1020 30.12 849 25.07 6.8 44.3 50 -2.9 26.8
16:05 1020 30.12 849 25.07 6.8 44.2 50 -3 26.5
16:10 1020 30.12 849 25.07 6.8 44.2 50 -2.9 26.8
16:15 1020 30.12 850 25.1 6.7 44.1 50 -3 26.6
16:20 1020 30.12 850 25.1 6.6 43.9 47 -3.8 25.2
16:25 1020 30.12 850 25.1 6.7 44 45 -4.3 24.3
16:30 1021 30.15 850 25.1 6.7 44.1 47 -3.9 25
16:35 1020 30.12 850 25.1 6.7 44 46 -4.1 24.7
16:40 1020 30.12 850 25.1 6.7 44 47 -4 24.9
16:45 1021 30.15 850 25.1 6.6 43.9 48 -3.7 25.3
16:50 1021 30.15 850 25.1 6.4 43.6 48 -3.7 25.4
16:55 1020 30.12 850 25.1 6.4 43.5 47 -4.1 24.6
17:00 1020 30.12 849 25.07 6.4 43.6 46 -4.2 24.4
17:05 1020 30.12 849 25.07 6.4 43.5 46 -4.4 24.1
17:10 1020 30.12 850 25.1 6.4 43.5 48 -3.9 25
17:15 1020 30.12 850 25.1 6.3 43.3 49 -3.7 25.3
17:20 1020 30.12 850 25.1 6.2 43.2 49 -3.7 25.4
17:25 1020 30.12 850 25.1 6.1 43 49 -3.8 25.2
17:30 1020 30.12 850 25.1 6.1 42.9 49 -3.8 25.1
17:35 1020 30.12 849 25.07 6 42.8 50 -3.6 25.4
17:40 1020 30.12 849 25.07 5.9 42.7 51 -3.5 25.7
17:45 1020 30.12 849 25.07 5.9 42.6 52 -3.2 26.2
17:50 1020 30.12 849 25.07 5.6 42.2 54 -2.9 26.8
17:55 1020 30.12 849 25.07 5.4 41.8 54 -3.1 26.4
18:00 1020 30.12 849 25.07 5.5 41.8 54 -3 26.6
18:05 1020 30.12 849 25.07 5.4 41.8 54 -3.1 26.5
18:10 1020 30.12 849 25.07 5.4 41.7 55 -2.9 26.8
18:15 1020 30.12 849 25.07 5.3 41.6 55 -2.9 26.8
18:20 1020 30.12 849 25.07 5.4 41.6 55 -2.9 26.9
18:25 1020 30.12 849 25.07 5.3 41.6 55 -3 26.6
18:30 1020 30.12 850 25.1 5.4 41.7 54 -3.1 26.5
18:35 1020 30.12 850 25.1 5.5 41.8 54 -3 26.6
18:40 1020 30.12 850 25.1 5.5 41.9 54 -3 26.5
18:45 1020 30.12 850 25.1 5.5 41.8 54 -3.1 26.4
18:50 1020 30.12 850 25.1 5.4 41.8 54 -3.1 26.4
18:55 1020 30.12 850 25.1 5.4 41.7 55 -3.1 26.5
19:00 1020 30.12 850 25.1 5.3 41.5 55 -3.1 26.5
19:05 1020 30.12 850 25.1 5.3 41.5 55 -3.1 26.4
19:10 1020 30.12 849 25.07 5.3 41.5 55 -3 26.6
19:15 1020 30.12 849 25.07 5.3 41.5 55 -3.2 26.3
19:20 1020 30.12 849 25.07 5.2 41.4 55 -3.1 26.5
19:25 1020 30.12 849 25.07 5.2 41.4 55 -3.1 26.4
19:30 1020 30.12 849 25.07 5.2 41.3 56 -3 26.6
19:35 1020 30.12 849 25.07 5.2 41.3 55 -3.1 26.5
19:40 1020 30.12 849 25.07 5.2 41.3 55 -3.1 26.4
19:45 1020 30.12 849 25.07 5.2 41.3 55 -3.1 26.4
19:50 1020 30.12 849 25.07 5.2 41.4 53 -3.5 25.8
19:55 1020 30.12 849 25.07 5.3 41.6 54 -3.3 26.1
20:00 1020 30.12 849 25.07 5.3 41.5 55 -3.1 26.4
20:05 1020 30.12 849 25.07 5.2 41.4 56 -3 26.7
20:10 1020 30.12 849 25.07 5 41.1 55 -3.2 26.3
20:15 1020 30.12 849 25.07 5 41.1 55 -3.3 26.1
20:20 1020 30.12 849 25.07 5.2 41.3 54 -3.5 25.7
20:25 1020 30.12 849 25.07 5.3 41.5 54 -3.3 26.1
20:30 1020 30.12 849 25.07 5.3 41.5 54 -3.3 26.1
20:35 1020 30.12 849 25.07 5.3 41.5 53 -3.5 25.8
20:40 1019 30.09 849 25.07 5.3 41.6 54 -3.3 26.1
20:45 1019 30.09 849 25.07 5.3 41.6 54 -3.2 26.3
20:50 1019 30.09 849 25.07 5.2 41.4 54 -3.2 26.3
20:55 1019 30.09 848 25.04 5.2 41.4 55 -3 26.5
21:00 1019 30.09 848 25.04 5.1 41.3 55 -3.1 26.5
21:05 1019 30.09 848 25.04 5.1 41.2 56 -2.9 26.7
21:10 1019 30.09 848 25.04 5.1 41.2 56 -2.9 26.8
21:15 1019 30.09 848 25.04 5 41 56 -2.9 26.7
21:20 1019 30.09 848 25.04 5 41 57 -2.8 26.9
21:25 1019 30.09 848 25.04 5 41 57 -2.9 26.8
21:30 1019 30.09 848 25.04 5 41 57 -2.9 26.8
21:35 1019 30.09 848 25.04 5 41.1 56 -3 26.5
21:40 1019 30.09 848 25.04 5.1 41.2 55 -3.1 26.4
21:45 1019 30.09 848 25.04 5.1 41.2 55 -3.2 26.2
21:50 1019 30.09 848 25.04 5.1 41.2 54 -3.3 26
21:55 1019 30.09 848 25.04 5.2 41.3 54 -3.3 26.1
22:00 1018 30.06 848 25.04 5.2 41.4 55 -3.2 26.3
22:05 1018 30.06 848 25.04 5.2 41.4 56 -2.9 26.7
22:10 1018 30.06 848 25.04 5.1 41.2 56 -2.9 26.8
22:15 1019 30.09 848 25.04 5 41 56 -3 26.6
22:20 1019 30.09 848 25.04 5 40.9 57 -3 26.7
22:25 1018 30.06 848 25.04 5 41 56 -3.2 26.3
22:30 1018 30.06 848 25.04 5 41.1 55 -3.2 26.3
22:35 1018 30.06 848 25.04 5.1 41.1 55 -3.1 26.4
22:40 1018 30.06 848 25.04 5 41.1 56 -3.1 26.4
22:45 1018 30.06 848 25.04 5 41 56 -3.1 26.3
22:50 1018 30.06 847 25.01 5 41 56 -3 26.6
22:55 1018 30.06 847 25.01 5 40.9 56 -3.1 26.4
23:00 1018 30.06 847 25.01 5 40.9 56 -3.1 26.4
23:05 1018 30.06 847 25.01 5 41 55 -3.3 26.1
23:10 1018 30.06 847 25.01 5.1 41.1 55 -3.3 26.1
23:15 1018 30.06 847 25.01 5.2 41.3 54 -3.3 26
23:20 1018 30.06 847 25.01 5.2 41.4 55 -3.2 26.3
23:25 1018 30.06 847 25.01 5.2 41.3 56 -3 26.7
23:30 1018 30.06 847 25.01 5 41 57 -2.9 26.8
23:35 1018 30.06 847 25.01 4.8 40.7 58 -2.8 26.9
23:40 1018 30.06 847 25.01 4.8 40.6 58 -2.9 26.8
23:45 1018 30.06 847 25.01 4.8 40.6 58 -2.9 26.8
23:50 1018 30.06 847 25.01 4.8 40.7 57 -3 26.6
23:55 1018 30.06 847 25.01 4.8 40.7 57 -2.9 26.7
24:00 1017 30.03 847 25.01 4.8 40.6 57 -3.1 26.4